Time;durP1;ratioP1;P1;durP2;ratioP2;P2;SDS_P1;SDS_P2;PMS_P1;PMS_P2;Temp;Humidity;BMP_temperature;BMP_pressure;BME280_temperature;BME280_humidity;BME280_pressure;Samples;Min_cycle;Max_cycle;Signal;HPM_P1;HPM_P2
2023/05/04 00:00:53;;;;;;;18.05;10.27;;;8.20;99.90;;;;;;5060920;28;20051;-72
2023/05/04 00:03:19;;;;;;;22.05;10.43;;;8.20;99.90;;;;;;5061977;28;20047;-72
2023/05/04 00:05:44;;;;;;;25.20;10.70;;;8.20;99.90;;;;;;5057360;28;20133;-72
2023/05/04 00:08:10;;;;;;;20.30;10.48;;;8.20;99.90;;;;;;5056899;28;20050;-72
2023/05/04 00:10:36;;;;;;;19.35;9.90;;;8.20;99.90;;;;;;5056417;28;20027;-71
2023/05/04 00:13:01;;;;;;;30.08;11.50;;;8.20;99.90;;;;;;5057781;28;20436;-72
2023/05/04 00:15:29;;;;;;;23.45;11.02;;;8.10;99.90;;;;;;5058343;28;20535;-72
2023/05/04 00:17:55;;;;;;;22.52;11.35;;;8.10;99.90;;;;;;5065610;28;20478;-72
2023/05/04 00:20:21;;;;;;;17.42;9.88;;;8.10;99.90;;;;;;5060540;28;20044;-72
2023/05/04 00:22:46;;;;;;;22.17;10.98;;;8.10;99.90;;;;;;5045698;28;20415;-72
2023/05/04 00:25:12;;;;;;;20.02;11.32;;;8.10;99.90;;;;;;5052682;28;20104;-72
2023/05/04 00:27:37;;;;;;;22.88;10.45;;;8.10;99.90;;;;;;5055125;28;20241;-72
2023/05/04 00:30:03;;;;;;;18.42;10.60;;;8.20;99.90;;;;;;5053896;28;20431;-72
2023/05/04 00:32:29;;;;;;;23.90;10.63;;;8.20;99.90;;;;;;5054938;28;20056;-72
2023/05/04 00:34:55;;;;;;;22.98;11.20;;;8.20;99.90;;;;;;5063102;28;20228;-71
2023/05/04 00:37:21;;;;;;;21.85;11.38;;;8.20;99.90;;;;;;5057859;28;20584;-71
2023/05/04 00:39:47;;;;;;;23.13;10.70;;;8.20;99.90;;;;;;5054574;28;20056;-72
2023/05/04 00:42:12;;;;;;;22.75;11.82;;;8.20;99.90;;;;;;5052752;28;20032;-72
2023/05/04 00:44:40;;;;;;;27.13;11.75;;;8.20;99.90;;;;;;5057283;28;20111;-71
2023/05/04 00:47:07;;;;;;;23.83;9.93;;;8.20;99.90;;;;;;5043397;28;20032;-71
2023/05/04 00:49:33;;;;;;;24.00;11.52;;;8.20;99.90;;;;;;5030327;28;20423;-72
2023/05/04 00:52:00;;;;;;;25.38;12.25;;;8.10;99.90;;;;;;5055117;28;20443;-72
2023/05/04 00:54:27;;;;;;;25.50;11.25;;;8.10;99.90;;;;;;5057639;28;20048;-72
2023/05/04 00:56:52;;;;;;;26.02;11.85;;;8.10;99.90;;;;;;5052585;28;20197;-71
2023/05/04 00:59:18;;;;;;;23.42;10.55;;;8.00;99.90;;;;;;5054635;28;20318;-72
2023/05/04 01:01:44;;;;;;;31.35;12.50;;;8.00;99.90;;;;;;5055490;28;20024;-71
2023/05/04 01:04:10;;;;;;;26.17;11.45;;;8.00;99.90;;;;;;5054588;28;20548;-72
2023/05/04 01:06:59;;;;;;;23.95;11.68;;;8.00;99.90;;;;;;5053963;28;20472;-72
2023/05/04 01:09:31;;;;;;;20.58;10.75;;;7.90;99.90;;;;;;5046329;28;20044;-72
2023/05/04 01:11:59;;;;;;;21.60;10.63;;;7.90;99.90;;;;;;5048945;28;20024;-72
2023/05/04 01:14:27;;;;;;;23.10;11.40;;;7.90;99.90;;;;;;5058436;28;20132;-72
2023/05/04 01:16:55;;;;;;;26.75;12.20;;;7.80;99.90;;;;;;5056535;28;20137;-72
2023/05/04 01:19:21;;;;;;;24.27;12.10;;;7.90;99.90;;;;;;5038814;28;20082;-71
2023/05/04 01:21:47;;;;;;;19.83;11.10;;;7.80;99.90;;;;;;5055481;28;20517;-72
2023/05/04 01:24:12;;;;;;;24.77;12.73;;;7.80;99.90;;;;;;5056769;28;20029;-72
2023/05/04 01:26:40;;;;;;;34.35;14.98;;;7.80;99.90;;;;;;5059012;28;20036;-72
2023/05/04 01:29:24;;;;;;;29.05;14.07;;;7.80;99.90;;;;;;5057355;28;20021;-72
2023/05/04 01:31:52;;;;;;;29.83;13.30;;;7.80;99.90;;;;;;5053573;28;20397;-72
2023/05/04 01:34:18;;;;;;;22.80;12.55;;;7.80;99.90;;;;;;5050225;28;20291;-71
2023/05/04 01:36:45;;;;;;;22.65;12.40;;;7.80;99.90;;;;;;5054122;28;20089;-72
2023/05/04 01:39:10;;;;;;;26.38;13.05;;;7.80;99.90;;;;;;5056948;28;20036;-72
2023/05/04 01:41:36;;;;;;;27.17;12.57;;;7.80;99.90;;;;;;5049908;28;20028;-72
2023/05/04 01:44:02;;;;;;;28.50;13.27;;;7.80;99.90;;;;;;5065486;28;20079;-71
2023/05/04 01:46:29;;;;;;;34.33;14.88;;;7.90;99.90;;;;;;5056482;28;20081;-72
2023/05/04 01:48:54;;;;;;;24.02;13.38;;;7.90;99.90;;;;;;5052829;28;20099;-72
2023/05/04 01:51:20;;;;;;;24.83;12.90;;;7.80;99.90;;;;;;5047790;28;20454;-71
2023/05/04 01:53:46;;;;;;;26.35;14.27;;;7.90;99.90;;;;;;5053379;28;20057;-72
2023/05/04 01:56:11;;;;;;;25.60;12.23;;;7.90;99.90;;;;;;5051709;28;20028;-72
2023/05/04 01:58:37;;;;;;;25.60;13.02;;;7.90;99.90;;;;;;5052829;28;20032;-72
2023/05/04 02:01:02;;;;;;;24.63;12.40;;;7.90;99.90;;;;;;5049874;28;20413;-72
2023/05/04 02:03:28;;;;;;;22.50;12.38;;;7.90;99.90;;;;;;5054801;28;20033;-71
2023/05/04 02:05:54;;;;;;;28.52;12.90;;;7.90;99.90;;;;;;5056671;28;20508;-72
2023/05/04 02:08:20;;;;;;;22.60;12.57;;;7.90;99.90;;;;;;5056652;28;20020;-71
2023/05/04 02:10:46;;;;;;;23.50;12.43;;;7.90;99.90;;;;;;5055735;28;20028;-72
2023/05/04 02:13:12;;;;;;;24.38;13.10;;;7.90;99.90;;;;;;5057281;28;20028;-71
2023/05/04 02:15:37;;;;;;;25.10;14.15;;;8.00;99.90;;;;;;5057018;28;20549;-72
2023/05/04 02:18:03;;;;;;;30.58;14.00;;;8.00;99.90;;;;;;5051567;28;20040;-72
2023/05/04 02:20:29;;;;;;;32.35;13.63;;;7.90;99.90;;;;;;5057476;28;20048;-72
2023/05/04 02:22:54;;;;;;;27.25;13.40;;;7.90;99.90;;;;;;5059122;28;20086;-72
2023/05/04 02:25:22;;;;;;;28.13;14.98;;;7.90;99.90;;;;;;5054729;28;20036;-72
2023/05/04 02:27:47;;;;;;;27.85;14.88;;;7.90;99.90;;;;;;5059630;28;20033;-72
2023/05/04 02:30:13;;;;;;;30.52;15.63;;;7.90;99.90;;;;;;5040815;28;20025;-71
2023/05/04 02:32:39;;;;;;;28.58;15.15;;;7.90;99.90;;;;;;5060923;28;20075;-72
2023/05/04 02:35:05;;;;;;;30.65;14.70;;;7.90;99.90;;;;;;5067812;28;20622;-72
2023/05/04 02:37:31;;;;;;;30.05;14.48;;;7.90;99.90;;;;;;5036612;28;20135;-71
2023/05/04 02:39:56;;;;;;;29.85;14.77;;;7.90;99.90;;;;;;5058971;28;20033;-72
2023/05/04 02:42:22;;;;;;;26.27;14.38;;;7.90;99.90;;;;;;5061211;28;20131;-72
2023/05/04 02:44:48;;;;;;;27.95;14.70;;;7.90;99.90;;;;;;5061679;28;20336;-72
2023/05/04 02:47:13;;;;;;;26.73;15.40;;;8.00;99.90;;;;;;5061001;28;20531;-71
2023/05/04 02:49:39;;;;;;;36.15;16.48;;;8.10;99.90;;;;;;5050056;28;20041;-72
2023/05/04 02:52:05;;;;;;;29.13;15.95;;;8.10;99.90;;;;;;5058098;28;20025;-72
2023/05/04 02:54:30;;;;;;;30.73;15.48;;;8.20;99.90;;;;;;5061378;28;20103;-72
2023/05/04 02:56:56;;;;;;;31.52;15.30;;;8.30;99.90;;;;;;5057181;28;20050;-72
2023/05/04 02:59:22;;;;;;;26.77;15.18;;;8.30;99.90;;;;;;5060988;28;20024;-72
2023/05/04 03:01:47;;;;;;;27.25;15.07;;;8.40;99.90;;;;;;5060123;28;20044;-72
2023/05/04 03:04:13;;;;;;;28.42;14.80;;;8.40;99.90;;;;;;5040390;28;20388;-72
2023/05/04 03:06:38;;;;;;;31.55;14.85;;;8.50;99.90;;;;;;5060713;28;20025;-72
2023/05/04 03:09:04;;;;;;;29.83;15.20;;;8.40;99.90;;;;;;5062048;28;20126;-72
2023/05/04 03:11:30;;;;;;;28.63;15.35;;;8.40;99.90;;;;;;5058232;28;20033;-71
2023/05/04 03:13:55;;;;;;;26.60;15.63;;;8.40;99.90;;;;;;5058218;28;20115;-72
2023/05/04 03:16:21;;;;;;;27.73;14.88;;;8.50;99.90;;;;;;5060424;28;20044;-72
2023/05/04 03:18:46;;;;;;;30.45;14.52;;;8.50;99.90;;;;;;5057915;28;20048;-73
2023/05/04 03:21:12;;;;;;;29.83;15.90;;;8.50;99.90;;;;;;5060237;28;20139;-72
2023/05/04 03:23:38;;;;;;;25.70;14.65;;;8.50;99.90;;;;;;5058612;28;20017;-72
2023/05/04 03:26:03;;;;;;;26.80;14.38;;;8.60;99.90;;;;;;5060846;28;20033;-71
2023/05/04 03:28:29;;;;;;;29.60;14.93;;;8.60;99.90;;;;;;5038881;28;20116;-72
2023/05/04 03:30:55;;;;;;;29.45;15.20;;;8.60;99.90;;;;;;5040817;28;20032;-72
2023/05/04 03:33:20;;;;;;;29.08;15.15;;;8.60;99.90;;;;;;5057498;28;20115;-72
2023/05/04 03:35:46;;;;;;;29.25;15.38;;;8.60;99.90;;;;;;5059900;28;20040;-72
2023/05/04 03:38:12;;;;;;;32.05;15.52;;;8.70;99.90;;;;;;5050606;28;20021;-72
2023/05/04 03:40:37;;;;;;;25.55;14.00;;;8.70;99.90;;;;;;5043885;28;20478;-72
2023/05/04 03:43:03;;;;;;;31.40;15.82;;;8.70;99.90;;;;;;5057994;28;20328;-72
2023/05/04 03:45:29;;;;;;;33.80;14.35;;;8.70;99.90;;;;;;5056005;28;20028;-72
2023/05/04 03:47:54;;;;;;;29.48;16.25;;;8.60;99.90;;;;;;5058172;28;20056;-72
2023/05/04 03:50:21;;;;;;;25.95;15.32;;;8.60;99.90;;;;;;5050093;28;20037;-72
2023/05/04 03:52:47;;;;;;;32.75;16.00;;;8.50;99.90;;;;;;5057534;28;20021;-72
2023/05/04 03:55:13;;;;;;;27.88;15.07;;;8.50;99.90;;;;;;5058590;28;20097;-72
2023/05/04 03:57:38;;;;;;;32.50;16.40;;;8.50;99.90;;;;;;5058547;28;20036;-72
2023/05/04 04:00:06;;;;;;;28.13;15.73;;;8.50;99.90;;;;;;5059513;28;20028;-72
2023/05/04 04:02:32;;;;;;;28.52;16.30;;;8.50;99.90;;;;;;5049620;28;20056;-71
2023/05/04 04:04:58;;;;;;;31.38;16.27;;;8.50;99.90;;;;;;5054399;28;20332;-72
2023/05/04 04:07:24;;;;;;;33.10;15.90;;;8.60;99.90;;;;;;5058699;28;20037;-72
2023/05/04 04:09:51;;;;;;;29.65;15.32;;;8.60;99.90;;;;;;5060231;28;20036;-72
2023/05/04 04:12:18;;;;;;;28.55;16.00;;;8.60;99.90;;;;;;5055249;28;20021;-72
2023/05/04 04:14:44;;;;;;;27.75;15.35;;;8.60;99.90;;;;;;5057295;28;20040;-72
2023/05/04 04:17:09;;;;;;;26.42;15.30;;;8.60;99.90;;;;;;5056819;28;20028;-72
2023/05/04 04:19:35;;;;;;;32.50;16.50;;;8.50;99.90;;;;;;5037739;28;20041;-72
2023/05/04 04:22:01;;;;;;;30.58;15.15;;;8.50;99.90;;;;;;5058694;28;20111;-72
2023/05/04 04:24:27;;;;;;;29.48;15.98;;;8.50;99.90;;;;;;5049050;28;20572;-71
2023/05/04 04:26:52;;;;;;;29.98;15.25;;;8.50;99.90;;;;;;5057381;28;20035;-71
2023/05/04 04:29:18;;;;;;;32.00;16.35;;;8.50;99.90;;;;;;5057810;28;20059;-72
2023/05/04 04:31:44;;;;;;;29.17;15.88;;;8.50;99.90;;;;;;5054673;28;20507;-72
2023/05/04 04:34:09;;;;;;;30.08;16.45;;;8.60;99.90;;;;;;5065568;28;20458;-72
2023/05/04 04:36:35;;;;;;;32.88;16.92;;;8.70;99.90;;;;;;5054981;28;20032;-72
2023/05/04 04:39:01;;;;;;;28.60;15.55;;;8.70;99.90;;;;;;5050524;28;20128;-72
2023/05/04 04:41:27;;;;;;;28.70;15.55;;;8.80;99.90;;;;;;5044628;28;20020;-72
2023/05/04 04:43:52;;;;;;;27.08;15.30;;;8.80;99.90;;;;;;5037577;28;20031;-71
2023/05/04 04:46:18;;;;;;;32.15;16.38;;;8.90;99.90;;;;;;5057348;28;20217;-72
2023/05/04 04:48:43;;;;;;;26.42;15.88;;;8.90;99.90;;;;;;5057922;28;20043;-72
2023/05/04 04:51:11;;;;;;;27.13;16.08;;;9.00;99.90;;;;;;5058133;28;20131;-72
2023/05/04 04:53:37;;;;;;;30.45;15.90;;;9.10;99.90;;;;;;5058006;28;20031;-72
2023/05/04 04:56:03;;;;;;;29.85;15.63;;;9.20;99.90;;;;;;5057905;28;20269;-72
2023/05/04 04:58:29;;;;;;;27.58;15.88;;;9.20;99.90;;;;;;5052851;28;20053;-72
2023/05/04 05:00:57;;;;;;;28.38;15.65;;;9.30;99.90;;;;;;5055699;28;20144;-72
2023/05/04 05:03:22;;;;;;;32.63;15.90;;;9.30;99.90;;;;;;5044404;28;20699;-72
2023/05/04 05:05:48;;;;;;;25.52;15.73;;;9.40;99.90;;;;;;5054610;28;20028;-72
2023/05/04 05:08:15;;;;;;;29.95;15.57;;;9.40;99.90;;;;;;5077923;28;20063;-72
2023/05/04 05:10:41;;;;;;;28.15;16.63;;;9.50;99.90;;;;;;5079246;28;20020;-72
2023/05/04 05:13:07;;;;;;;27.83;15.07;;;9.60;99.90;;;;;;5036087;28;20499;-72
2023/05/04 05:15:33;;;;;;;29.75;14.85;;;9.60;99.90;;;;;;5024387;28;20425;-72
2023/05/04 05:17:59;;;;;;;27.23;15.10;;;9.70;99.90;;;;;;5034082;28;20102;-72
2023/05/04 05:20:25;;;;;;;28.88;15.93;;;9.70;99.90;;;;;;5050332;28;20045;-72
2023/05/04 05:22:50;;;;;;;27.80;14.45;;;9.80;99.90;;;;;;5035526;28;20041;-72
2023/05/04 05:25:17;;;;;;;24.45;15.27;;;10.00;99.90;;;;;;5038695;28;20033;-72
2023/05/04 05:27:43;;;;;;;31.33;15.13;;;10.20;99.90;;;;;;5031096;28;20527;-72
2023/05/04 05:30:09;;;;;;;27.30;14.57;;;10.40;99.90;;;;;;5037044;28;20249;-72
2023/05/04 05:32:34;;;;;;;29.70;15.38;;;10.60;99.90;;;;;;5034661;28;20028;-72
2023/05/04 05:35:00;;;;;;;28.05;14.82;;;10.80;99.90;;;;;;5032813;28;20040;-71
2023/05/04 05:37:26;;;;;;;25.83;13.73;;;10.90;99.90;;;;;;5033659;28;20047;-72
2023/05/04 05:39:52;;;;;;;27.65;14.95;;;11.00;99.90;;;;;;5034692;28;20083;-72
2023/05/04 05:42:18;;;;;;;29.63;14.48;;;11.20;99.90;;;;;;5037191;28;20044;-72
2023/05/04 05:44:44;;;;;;;27.67;14.02;;;11.20;99.90;;;;;;5033836;28;20115;-72
2023/05/04 05:47:10;;;;;;;22.70;13.63;;;11.40;99.90;;;;;;5035573;28;20453;-71
2023/05/04 05:49:35;;;;;;;24.45;13.63;;;11.50;99.90;;;;;;5038102;28;20040;-72
2023/05/04 05:52:01;;;;;;;27.77;14.40;;;11.60;99.90;;;;;;5035133;28;20496;-72
2023/05/04 05:54:30;;;;;;;26.13;14.18;;;11.70;99.90;;;;;;5038295;28;20033;-72
2023/05/04 05:56:55;;;;;;;21.33;13.10;;;11.80;99.90;;;;;;5037100;28;20068;-72
2023/05/04 05:59:21;;;;;;;26.20;13.52;;;12.10;99.90;;;;;;5036687;28;20428;-72
2023/05/04 06:01:47;;;;;;;22.63;13.27;;;12.10;99.90;;;;;;5045919;28;20084;-72
2023/05/04 06:04:12;;;;;;;19.15;12.73;;;12.30;99.90;;;;;;5029938;28;20094;-72
2023/05/04 06:06:38;;;;;;;22.65;11.70;;;12.40;99.90;;;;;;5033227;28;20441;-72
2023/05/04 06:09:04;;;;;;;21.00;12.32;;;12.50;99.90;;;;;;5037972;28;20033;-72
2023/05/04 06:11:30;;;;;;;22.77;12.18;;;12.50;99.90;;;;;;5038874;28;20029;-72
2023/05/04 06:13:56;;;;;;;20.98;11.73;;;12.70;99.90;;;;;;5037656;28;20035;-71
2023/05/04 06:16:22;;;;;;;21.42;11.60;;;12.80;99.90;;;;;;5019047;28;20049;-72
2023/05/04 06:18:47;;;;;;;20.73;12.15;;;12.70;99.90;;;;;;5034952;28;20041;-72
2023/05/04 06:21:13;;;;;;;20.50;11.75;;;12.80;99.90;;;;;;5052470;28;20080;-72
2023/05/04 06:23:39;;;;;;;19.95;11.20;;;12.80;99.90;;;;;;5056446;28;20032;-72
2023/05/04 06:26:06;;;;;;;18.67;11.27;;;13.00;99.90;;;;;;5053803;28;20025;-72
2023/05/04 06:28:32;;;;;;;23.02;12.30;;;13.20;99.90;;;;;;5048735;28;20424;-72
2023/05/04 06:30:58;;;;;;;15.52;10.57;;;13.20;99.90;;;;;;5053440;28;20032;-72
2023/05/04 06:33:24;;;;;;;20.17;11.32;;;13.30;99.90;;;;;;5052544;28;20047;-71
2023/05/04 06:35:51;;;;;;;17.95;11.23;;;13.10;99.90;;;;;;5048179;28;20036;-72
2023/05/04 06:38:16;;;;;;;18.38;10.73;;;13.10;99.90;;;;;;5051503;28;20067;-73
2023/05/04 06:40:42;;;;;;;16.13;10.95;;;13.20;99.90;;;;;;5050111;28;20482;-72
2023/05/04 06:43:08;;;;;;;21.20;11.73;;;13.40;99.90;;;;;;5030953;28;20032;-72
2023/05/04 06:45:37;;;;;;;21.13;10.85;;;13.80;99.90;;;;;;5054605;28;20103;-72
2023/05/04 06:48:03;;;;;;;17.38;10.52;;;14.50;95.90;;;;;;5055812;28;20066;-72
2023/05/04 06:50:30;;;;;;;16.92;9.70;;;14.80;95.00;;;;;;5055882;28;20106;-72
2023/05/04 06:53:10;;;;;;;15.13;9.65;;;15.20;92.20;;;;;;5041463;28;20052;-72
2023/05/04 06:55:36;;;;;;;16.02;9.18;;;15.50;93.60;;;;;;5041674;28;20217;-72
2023/05/04 06:58:02;;;;;;;15.52;9.27;;;15.90;92.80;;;;;;5046553;28;20032;-72
2023/05/04 07:00:29;;;;;;;17.55;9.38;;;15.50;91.40;;;;;;5056015;28;20376;-72
2023/05/04 07:02:55;;;;;;;17.40;9.15;;;15.50;92.10;;;;;;5054587;28;20075;-72
2023/05/04 07:05:21;;;;;;;15.02;8.73;;;15.50;91.70;;;;;;5055534;28;20234;-72
2023/05/04 07:07:47;;;;;;;13.38;8.63;;;15.40;90.20;;;;;;5059594;28;20460;-72
2023/05/04 07:10:13;;;;;;;13.27;8.20;;;15.30;92.00;;;;;;5060701;28;20029;-72
2023/05/04 07:12:40;;;;;;;13.48;8.43;;;15.60;90.10;;;;;;5060863;28;20043;-72
2023/05/04 07:15:07;;;;;;;16.02;8.60;;;15.90;88.40;;;;;;5059838;28;20076;-72
2023/05/04 07:17:33;;;;;;;13.32;8.00;;;16.20;89.10;;;;;;5046710;28;20049;-72
2023/05/04 07:20:01;;;;;;;15.25;8.88;;;16.20;88.50;;;;;;5044850;28;20412;-72
2023/05/04 07:22:27;;;;;;;15.60;8.18;;;16.60;82.50;;;;;;5059669;28;20423;-72
2023/05/04 07:24:53;;;;;;;10.48;7.45;;;17.00;88.40;;;;;;5056544;28;20029;-72
2023/05/04 07:27:19;;;;;;;14.07;8.10;;;17.50;82.60;;;;;;5056051;28;20483;-72
2023/05/04 07:29:44;;;;;;;13.48;7.95;;;17.40;76.40;;;;;;5057857;28;20134;-72
2023/05/04 07:32:10;;;;;;;14.15;7.90;;;17.30;73.10;;;;;;5058254;28;20103;-73
2023/05/04 07:34:36;;;;;;;11.52;7.70;;;17.10;75.80;;;;;;5053763;28;20637;-72
2023/05/04 07:37:04;;;;;;;12.13;7.88;;;17.30;78.10;;;;;;5044519;28;20750;-72
2023/05/04 07:39:33;;;;;;;12.18;7.20;;;17.40;74.90;;;;;;5038213;28;20035;-73
2023/05/04 07:41:58;;;;;;;11.25;7.45;;;17.80;73.00;;;;;;5040719;28;20044;-73
2023/05/04 07:44:24;;;;;;;15.13;7.88;;;18.60;65.30;;;;;;5032366;28;20028;-72
2023/05/04 07:46:50;;;;;;;12.52;7.70;;;19.40;60.50;;;;;;5037568;28;20032;-73
2023/05/04 07:49:15;;;;;;;12.07;7.72;;;19.50;57.00;;;;;;5035984;28;20046;-72
2023/05/04 07:51:41;;;;;;;13.63;6.88;;;19.60;52.60;;;;;;5041394;28;20036;-72
2023/05/04 07:54:06;;;;;;;11.75;7.70;;;18.80;56.40;;;;;;5054178;28;20033;-72
2023/05/04 07:56:33;;;;;;;12.07;7.05;;;18.30;68.70;;;;;;5052437;28;20575;-72
2023/05/04 07:58:59;;;;;;;13.23;7.65;;;18.60;64.70;;;;;;5047416;28;20059;-73
2023/05/04 08:01:25;;;;;;;13.73;6.80;;;19.20;61.30;;;;;;5041487;28;20115;-72
2023/05/04 08:03:50;;;;;;;11.52;6.82;;;20.00;56.10;;;;;;5046774;28;20024;-72
2023/05/04 08:06:16;;;;;;;9.85;6.68;;;21.40;49.30;;;;;;5049000;28;20549;-72
2023/05/04 08:08:43;;;;;;;12.60;7.10;;;21.80;49.40;;;;;;5052090;28;20462;-73
2023/05/04 08:11:13;;;;;;;9.88;7.15;;;22.10;45.50;;;;;;5049013;28;20024;-73
2023/05/04 08:13:39;;;;;;;10.23;6.63;;;23.00;44.30;;;;;;5049145;28;20027;-72
2023/05/04 08:16:05;;;;;;;10.27;6.20;;;22.60;43.50;;;;;;5030378;28;20229;-72
2023/05/04 08:18:31;;;;;;;13.50;7.00;;;22.80;46.40;;;;;;5041703;28;20052;-73
2023/05/04 08:20:57;;;;;;;11.88;6.13;;;22.40;44.80;;;;;;5048473;28;20270;-72
2023/05/04 08:23:22;;;;;;;9.38;6.90;;;21.60;46.90;;;;;;5039573;28;20611;-73
2023/05/04 08:25:48;;;;;;;11.38;6.80;;;20.60;49.20;;;;;;5035307;28;20500;-72
2023/05/04 08:28:14;;;;;;;12.05;6.50;;;19.60;52.80;;;;;;5037792;28;20110;-72
2023/05/04 08:30:39;;;;;;;12.93;6.57;;;18.80;60.30;;;;;;5027648;28;20031;-72
2023/05/04 08:33:07;;;;;;;11.32;6.43;;;18.70;60.20;;;;;;5036559;28;20116;-72
2023/05/04 08:35:32;;;;;;;10.45;6.25;;;18.80;60.30;;;;;;5041417;28;20028;-73
2023/05/04 08:37:58;;;;;;;8.45;5.55;;;19.50;58.80;;;;;;5057555;28;20105;-72
2023/05/04 08:40:24;;;;;;;9.80;5.95;;;19.90;56.60;;;;;;5058824;28;20028;-73
2023/05/04 08:42:51;;;;;;;10.52;6.07;;;20.50;55.90;;;;;;5048378;28;20337;-72
2023/05/04 08:45:16;;;;;;;10.60;6.80;;;20.50;51.00;;;;;;5042053;28;20028;-72
2023/05/04 08:47:43;;;;;;;7.47;5.72;;;20.40;51.10;;;;;;5042549;28;20206;-72
2023/05/04 08:50:10;;;;;;;10.38;5.95;;;20.70;52.40;;;;;;5041184;28;20024;-73
2023/05/04 08:52:39;;;;;;;9.65;5.95;;;22.20;48.00;;;;;;5044535;28;20044;-72
2023/05/04 08:55:06;;;;;;;11.25;6.03;;;24.10;43.10;;;;;;5048726;28;20047;-72
2023/05/04 08:57:33;;;;;;;9.13;5.78;;;25.50;40.60;;;;;;5037954;28;20063;-73
2023/05/04 08:59:59;;;;;;;12.02;5.80;;;25.30;38.80;;;;;;5055331;28;20025;-72
2023/05/04 09:02:26;;;;;;;11.45;6.30;;;24.30;40.50;;;;;;5054284;28;20077;-73
2023/05/04 09:04:53;;;;;;;9.10;5.93;;;23.10;44.10;;;;;;5061722;28;20039;-73
2023/05/04 09:07:20;;;;;;;10.18;6.13;;;22.50;44.00;;;;;;5049283;28;20039;-73
2023/05/04 09:09:47;;;;;;;9.77;5.93;;;22.30;45.90;;;;;;5054926;28;20357;-73
2023/05/04 09:12:13;;;;;;;10.38;6.57;;;22.20;47.70;;;;;;5040394;28;20024;-72
2023/05/04 09:14:43;;;;;;;10.05;6.45;;;21.90;45.20;;;;;;5040817;28;20127;-72
2023/05/04 09:17:15;;;;;;;11.25;6.35;;;21.50;47.50;;;;;;5057648;28;20049;-73
2023/05/04 09:19:42;;;;;;;7.93;5.50;;;21.10;48.70;;;;;;5050179;28;20028;-72
2023/05/04 09:22:16;;;;;;;10.32;6.45;;;20.80;50.20;;;;;;5059234;28;20028;-72
2023/05/04 09:24:42;;;;;;;10.20;6.05;;;20.50;51.90;;;;;;5043609;28;20032;-72
2023/05/04 09:27:12;;;;;;;10.40;6.80;;;20.00;58.00;;;;;;5047364;28;20413;-72
2023/05/04 09:29:39;;;;;;;8.90;6.03;;;19.90;59.50;;;;;;5026981;28;20466;-72
2023/05/04 09:32:08;;;;;;;10.70;6.32;;;19.80;63.50;;;;;;5027470;28;20464;-72
2023/05/04 09:34:36;;;;;;;12.35;6.47;;;19.90;60.40;;;;;;5054715;28;20025;-72
2023/05/04 09:37:02;;;;;;;11.18;6.07;;;19.90;57.80;;;;;;5051904;28;20036;-72
2023/05/04 09:39:29;;;;;;;10.63;5.97;;;19.60;58.40;;;;;;5036134;28;20021;-72
2023/05/04 09:41:55;;;;;;;9.55;6.00;;;19.60;58.90;;;;;;5034882;28;20077;-72
2023/05/04 09:44:22;;;;;;;10.93;6.15;;;19.70;57.40;;;;;;5035406;28;20350;-73
2023/05/04 09:46:55;;;;;;;9.57;6.10;;;19.90;57.70;;;;;;5048384;28;20029;-72
2023/05/04 09:49:33;;;;;;;8.98;5.65;;;20.10;58.00;;;;;;5037024;28;20828;-72
2023/05/04 09:52:02;;;;;;;12.20;6.30;;;20.70;56.00;;;;;;5055068;28;20028;-73
2023/05/04 09:54:33;;;;;;;11.05;6.10;;;21.40;53.70;;;;;;5048119;28;20043;-73
2023/05/04 09:57:05;;;;;;;10.88;6.30;;;21.90;48.70;;;;;;5046631;28;21639;-73
2023/05/04 09:59:31;;;;;;;9.70;6.20;;;22.40;48.30;;;;;;5049036;28;20024;-72
2023/05/04 10:01:58;;;;;;;11.68;5.95;;;22.70;44.30;;;;;;5047943;28;20041;-71
2023/05/04 10:04:24;;;;;;;8.27;5.80;;;23.00;45.90;;;;;;5032387;28;20074;-71
2023/05/04 10:06:52;;;;;;;10.95;6.00;;;24.90;43.00;;;;;;5048646;28;20032;-71
2023/05/04 10:09:19;;;;;;;9.45;5.10;;;25.60;36.60;;;;;;5049206;28;20025;-73
2023/05/04 10:11:44;;;;;;;7.65;4.80;;;26.30;39.20;;;;;;5046019;28;20136;-71
2023/05/04 10:14:12;;;;;;;7.30;5.60;;;27.60;36.80;;;;;;5052992;28;20054;-71
2023/05/04 10:16:51;;;;;;;7.28;5.00;;;28.50;35.00;;;;;;5048964;28;20044;-71
2023/05/04 10:19:43;;;;;;;6.63;5.18;;;28.70;35.40;;;;;;5044719;28;20055;-72
2023/05/04 10:22:32;;;;;;;9.07;5.63;;;27.10;35.40;;;;;;5040559;28;20584;-74
2023/05/04 10:25:23;;;;;;;8.10;5.65;;;25.30;37.30;;;;;;5040752;28;20147;-71
2023/05/04 10:28:04;;;;;;;13.35;5.93;;;23.50;41.50;;;;;;5045412;28;20028;-71
2023/05/04 10:30:30;;;;;;;10.63;5.60;;;22.00;45.00;;;;;;5044238;28;20032;-72
2023/05/04 10:32:57;;;;;;;8.55;5.20;;;22.10;46.60;;;;;;5049190;28;20026;-71
2023/05/04 10:35:24;;;;;;;9.25;5.25;;;23.80;46.30;;;;;;5049017;28;20036;-71
2023/05/04 10:37:53;;;;;;;6.40;4.68;;;27.10;39.30;;;;;;5054735;28;20634;-72
2023/05/04 10:40:31;;;;;;;8.15;4.13;;;28.20;34.50;;;;;;5034419;28;20037;-72
2023/05/04 10:42:57;;;;;;;7.72;4.22;;;30.80;34.10;;;;;;5052270;28;20377;-72
2023/05/04 10:45:36;;;;;;;5.55;3.95;;;33.30;31.90;;;;;;5047694;28;20025;-72
2023/05/04 10:48:03;;;;;;;5.75;4.20;;;35.20;28.60;;;;;;5053233;28;20558;-71
2023/05/04 10:50:48;;;;;;;7.90;4.25;;;35.80;28.60;;;;;;5052067;28;20598;-72
2023/05/04 10:53:17;;;;;;;5.35;3.72;;;34.80;25.50;;;;;;5057124;28;20451;-71
2023/05/04 10:55:47;;;;;;;6.65;4.30;;;34.40;28.10;;;;;;5052372;28;20032;-71
2023/05/04 10:58:15;;;;;;;6.78;4.57;;;33.40;28.70;;;;;;5027488;28;20526;-71
2023/05/04 11:00:45;;;;;;;5.88;4.50;;;32.90;27.40;;;;;;5032470;28;20396;-71
2023/05/04 11:03:12;;;;;;;6.72;4.32;;;32.90;29.80;;;;;;5049575;28;20224;-71
2023/05/04 11:05:51;;;;;;;6.05;4.32;;;33.90;28.80;;;;;;5048489;28;20032;-70
2023/05/04 11:08:18;;;;;;;4.97;3.95;;;33.30;28.50;;;;;;5027738;28;20024;-70
2023/05/04 11:10:59;;;;;;;8.77;4.15;;;33.30;27.90;;;;;;5031795;28;20086;-70
2023/05/04 11:13:25;;;;;;;;;;;33.40;28.20;;;;;;5053235;28;20491;-71
2023/05/04 11:15:51;;;;;;;8.80;4.43;;;32.30;29.00;;;;;;5049783;28;20162;-71
2023/05/04 11:18:30;;;;;;;8.85;4.60;;;31.70;31.30;;;;;;5050350;28;20044;-71
2023/05/04 11:20:57;;;;;;;6.70;4.90;;;30.40;30.00;;;;;;5035497;28;20040;-70
2023/05/04 11:23:23;;;;;;;7.53;4.97;;;28.00;33.80;;;;;;5046703;28;20148;-70
2023/05/04 11:25:49;;;;;;;9.93;5.60;;;26.30;36.10;;;;;;5043807;28;20017;-70
2023/05/04 11:28:15;;;;;;;9.85;6.07;;;24.20;39.50;;;;;;5047138;28;20551;-70
2023/05/04 11:30:42;;;;;;;7.95;6.00;;;23.70;41.60;;;;;;5039644;28;20028;-70
2023/05/04 11:33:13;;;;;;;10.55;6.45;;;23.30;43.00;;;;;;5026862;28;20028;-70
2023/05/04 11:35:41;;;;;;;7.88;5.45;;;23.30;44.40;;;;;;5041589;28;20028;-70
2023/05/04 11:38:07;;;;;;;7.88;5.38;;;23.90;45.60;;;;;;5037788;28;20032;-70
2023/05/04 11:40:33;;;;;;;6.90;5.38;;;24.20;43.70;;;;;;5040551;28;20476;-70
2023/05/04 11:43:00;;;;;;;8.32;4.53;;;24.00;42.70;;;;;;5045971;28;20167;-70
2023/05/04 11:45:35;;;;;;;7.57;4.57;;;23.90;45.30;;;;;;5047471;28;20072;-70
2023/05/04 11:48:01;;;;;;;6.70;5.05;;;23.60;43.20;;;;;;5045202;28;20050;-71
2023/05/04 11:50:28;;;;;;;10.40;5.30;;;23.40;43.10;;;;;;5040833;28;20487;-70
2023/05/04 11:53:05;;;;;;;6.55;5.47;;;22.90;47.80;;;;;;5036448;28;20044;-70
2023/05/04 11:55:31;;;;;;;7.55;5.43;;;22.60;46.80;;;;;;5040350;28;20294;-70
2023/05/04 11:58:07;;;;;;;10.25;5.63;;;22.70;47.10;;;;;;5040687;28;20048;-70
2023/05/04 12:00:40;;;;;;;10.20;6.10;;;22.00;47.30;;;;;;5041286;28;20104;-70
2023/05/04 12:03:12;;;;;;;7.55;5.47;;;21.80;50.30;;;;;;5045734;28;20547;-70
2023/05/04 12:05:45;;;;;;;9.88;6.20;;;21.60;48.70;;;;;;5049903;28;20025;-70
2023/05/04 12:08:31;;;;;;;9.70;5.43;;;21.80;51.00;;;;;;5051059;28;20077;-70
2023/05/04 12:11:16;;;;;;;10.43;5.85;;;22.00;51.70;;;;;;5044096;28;20024;-70
2023/05/04 12:13:44;;;;;;;9.15;6.65;;;22.70;64.30;;;;;;5038147;28;20033;-71
2023/05/04 12:16:13;;;;;;;11.30;8.02;;;23.20;50.10;;;;;;5022020;28;20035;-71
2023/05/04 12:18:39;;;;;;;13.52;8.05;;;23.30;50.00;;;;;;5038587;28;20035;-71
2023/05/04 12:21:08;;;;;;;11.15;7.47;;;23.30;50.10;;;;;;5046806;28;20380;-72
2023/05/04 12:23:35;;;;;;;10.88;7.60;;;23.60;53.00;;;;;;5049988;28;20468;-71
2023/05/04 12:26:01;;;;;;;12.57;7.78;;;23.40;50.30;;;;;;5048875;28;20024;-71
2023/05/04 12:28:28;;;;;;;13.10;8.48;;;23.30;50.20;;;;;;5046287;28;20031;-71
2023/05/04 12:30:54;;;;;;;10.57;8.43;;;22.70;56.20;;;;;;5045737;28;20028;-71
2023/05/04 12:33:19;;;;;;;12.82;8.45;;;21.90;55.70;;;;;;5045377;28;20033;-71
2023/05/04 12:35:46;;;;;;;12.27;8.27;;;21.30;62.90;;;;;;5046529;28;20058;-71
2023/05/04 12:38:12;;;;;;;13.32;8.82;;;20.50;59.90;;;;;;5059831;28;20460;-71